• Join FlightAware (Why Join?)
  • Login
  • US Flag 
12:43PM EDT


 

Airport Tracker/Info


-or-


 

Live Flight TrackerFlight Track Log ✈ AWI3688 ✈ 30-Apr-2013 ✈ KALB - KPHL

Flight Track Log - Related Links

Times and Time Zones

All times are in EDT time to prevent confusion due to time zone crossing. See the AWI3688 flight status page for this flight to view local times or setup timezone preferences in your user account.

Time Position Orientation Groundspeed Altitude Reporting Facility
EDT Latitude Longitude Course Direction KTS MPH feet Rate Location/Type
02:20PM 42.7297 -73.8081 223° Southwest 159 183 1,200  Level Boston Center
02:21PM 42.7083 -73.8697 245° Southwest 210 242 4,000 2,700 Climbing Boston Center
02:22PM 42.7334 -74.2584 270° West  Level FlightAware Approximate
02:22PM 42.7489 -73.9469 306° West 235 270 7,500  Level Boston Center
02:23PM 42.6766 -74.3785 220° Southwest  Level FlightAware Approximate
02:23PM 42.7625 -74.0125 286° West 230 265 9,500  Level Boston Center
02:24PM 42.5901 -74.4758 220° Southwest  Level FlightAware Approximate
02:24PM 42.7550 -74.1111 264° West 245 282 10,600  Level Boston Center
02:25PM 42.5216 -74.5605 223° Southwest  Level FlightAware Approximate
02:25PM 42.7511 -74.2242 267° West 277 319 12,400  Level Boston Center
02:26PM 42.7472 -74.3372 267° West 303 349 14,700 2,220 Climbing Boston Center
02:27PM 42.7306 -74.4525 259° West 313 360 16,900 1,680 Climbing Boston Center
02:28PM 42.6797 -74.5017 215° Southwest 296 341 18,100 1,020 Climbing Boston Center
02:29PM 42.5928 -74.5808 214° Southwest 314 361 19,000 420 Climbing Boston Center
02:30PM 42.4972 -74.6675 214° Southwest 352 405 19,000  Level Boston Center
02:31PM 42.4189 -74.7378 214° Southwest 352 405 19,000  Level Boston Center
02:33PM 42.2558 -74.8867 214° Southwest 333 383 19,000  Level New York Center
02:34PM 42.1783 -74.9572 214° Southwest 338 389 19,000  Level New York Center
02:35PM 42.0928 -75.0272 211° Southwest 338 389 19,000  Level New York Center
02:36PM 42.0175 -75.0950 214° Southwest 333 383 19,000  Level New York Center
02:37PM 41.9403 -75.1569 211° Southwest 338 389 19,000 -60 Level New York Center
02:38PM 41.8628 -75.2214 212° Southwest 338 389 18,900 -600 Descending New York Center
02:39PM 41.7942 -75.2753 210° Southwest 333 383 17,800 -1,260 Descending New York Center
02:40PM 41.7189 -75.3367 211° Southwest 333 383 16,400 -1,560 Descending New York Center
02:41PM 41.6394 -75.4008 211° Southwest 321 369 14,800 -1,500 Descending New York Center
02:42PM 41.5664 -75.4594 211° Southwest 316 364 13,500 -1,380 Descending New York Center
02:43PM 41.5019 -75.5103 207° Southwest 310 357 12,100 -780 Descending New York Center
02:44PM 41.4829 -75.5163 207° Southwest  Level FlightAware Approximate
02:44PM 41.4331 -75.5664 211° Southwest 305 351 12,000  Level New York Center
02:45PM 41.3556 -75.6272 211° Southwest 305 351 12,000 -300 Level New York Center
02:46PM 41.2889 -75.6775 210° Southwest 305 351 11,500 -900 Descending New York Center
02:47PM 41.2133 -75.6886 186° South 286 329 10,200 -780 Descending New York Center
02:48PM 41.1364 -75.6886 180° South 280 322 10,000 -120 Descending New York Center
02:49PM 41.0656 -75.6889 180° South 275 316 10,000  Level New York Center
02:50PM 40.9842 -75.6886 180° South 275 316 10,000  Level New York Center
02:51PM 40.9072 -75.6883 180° South 275 316 10,000  Level New York Center
02:52PM 40.8406 -75.6864 179° South 275 316 10,000  Level New York Center
02:53PM 40.7714 -75.6431 155° Southeast 270 311 10,000  Level New York Center
02:54PM 40.6944 -75.5911 153° Southeast 276 318 10,000  Level New York Center
02:55PM 40.6233 -75.5450 154° Southeast 282 325 10,000  Level New York Center
02:56PM 40.5564 -75.5019 154° Southeast 282 325 10,000 -720 Level New York Center
02:57PM 40.4975 -75.4625 153° Southeast 252 290 8,600 -1,380 Descending New York Center
02:58PM 40.4406 -75.4286 156° South 238 274 7,300 -1,260 Descending New York Center
02:59PM 40.3797 -75.4356 185° South 217 250 6,100 -1,080 Descending New York Center
03:00PM 40.3292 -75.4483 191° South 217 250 5,200 -600 Descending New York Center
03:01PM 40.2800 -75.4314 165° South 200 230 5,000 -120 Descending New York Center
03:02PM 40.2267 -75.4061 160° South 189 217 5,000 -540 Level New York Center
03:03PM 40.1797 -75.3839 160° South 179 206 4,000 -540 Descending New York Center
03:04PM 40.1344 -75.3647 162° South 173 199 4,000 -300 Level New York Center
03:05PM 40.0897 -75.3400 157° South 173 199 3,400 -540 Descending New York Center
03:06PM 40.0447 -75.3181 160° South 173 199 3,000 -540 Descending New York Center
03:07PM 40.0000 -75.3000 163° South 180 207 2,500 -600 Descending Philadelphia TRACON